createdAt,value
2023-02-08T00:02:44.298Z,72.15
2023-02-08T00:06:46.770Z,71.42
2023-02-08T00:10:49.867Z,71.51
2023-02-08T00:14:53.947Z,72.68
2023-02-08T00:18:56.878Z,72.46
2023-02-08T00:23:00.197Z,73.41
2023-02-08T00:27:02.171Z,73.30
2023-02-08T00:31:05.331Z,72.85
2023-02-08T00:35:08.899Z,73.41
2023-02-08T00:39:11.198Z,74.70
2023-02-08T00:43:14.406Z,74.37
2023-02-08T00:47:17.115Z,74.63
2023-02-08T00:51:20.541Z,73.46
2023-02-08T00:55:23.549Z,73.71
2023-02-08T00:59:27.295Z,73.45
2023-02-08T01:03:29.422Z,73.41
2023-02-08T01:07:32.148Z,73.36
2023-02-08T01:11:35.146Z,73.82
2023-02-08T01:15:37.647Z,74.83
2023-02-08T01:19:42.583Z,73.89
2023-02-08T01:23:46.093Z,73.26
2023-02-08T01:27:49.494Z,74.52
2023-02-08T01:31:52.578Z,75.06
2023-02-08T01:35:55.275Z,75.32
2023-02-08T01:39:57.504Z,75.57
2023-02-08T01:44:47.224Z,75.64
2023-02-08T01:48:52.320Z,75.70
2023-02-08T01:52:56.058Z,75.66
2023-02-08T01:57:00.573Z,77.11
2023-02-08T02:01:03.321Z,77.86
2023-02-08T02:05:06.430Z,77.76
2023-02-08T02:09:28.148Z,78.01
2023-02-08T02:13:31.984Z,78.88
2023-02-08T02:17:37.264Z,78.47
2023-02-08T02:21:53.436Z,78.39
2023-02-08T02:26:20.890Z,78.22
2023-02-08T02:30:52.866Z,78.17
2023-02-08T02:35:55.922Z,78.25
2023-02-08T02:39:59.031Z,78.51
2023-02-08T02:44:02.299Z,78.87
2023-02-08T02:48:42.505Z,78.75
2023-02-08T02:53:21.165Z,77.43
2023-02-08T02:57:31.936Z,76.69
2023-02-08T03:01:34.824Z,77.58
2023-02-08T03:05:38.550Z,78.57
2023-02-08T03:09:59.664Z,79.11
2023-02-08T03:14:27.955Z,80.22
2023-02-08T03:18:30.102Z,81.44
2023-02-08T03:22:43.467Z,82.09
2023-02-08T03:27:01.365Z,81.17
2023-02-08T03:31:18.153Z,79.52
2023-02-08T03:35:36.175Z,77.74
2023-02-08T03:39:39.795Z,77.63
2023-02-08T03:43:49.968Z,77.10
2023-02-08T03:47:55.609Z,78.42
2023-02-08T03:52:01.595Z,78.98
2023-02-08T03:56:10.404Z,79.34
2023-02-08T04:00:17.296Z,78.56
2023-02-08T04:04:22.554Z,78.31
2023-02-08T04:08:25.112Z,79.86
2023-02-08T04:12:30.429Z,81.72
2023-02-08T04:16:36.578Z,82.47
2023-02-08T04:20:39.575Z,82.62
2023-02-08T04:24:42.654Z,81.94
2023-02-08T04:28:44.828Z,81.61
2023-02-08T04:32:47.674Z,81.78
2023-02-08T04:36:50.523Z,81.72
2023-02-08T04:40:52.828Z,83.08
2023-02-08T04:44:55.094Z,83.61
2023-02-08T04:48:58.871Z,83.72
2023-02-08T04:53:01.370Z,81.51
2023-02-08T04:57:04.565Z,81.52
2023-02-08T05:01:33.002Z,81.48
2023-02-08T05:05:35.287Z,82.08
2023-02-08T05:09:37.348Z,82.25
2023-02-08T05:13:40.382Z,82.61
2023-02-08T05:17:43.521Z,82.66
2023-02-08T05:21:45.910Z,82.25
2023-02-08T05:25:49.261Z,81.03
2023-02-08T05:29:52.760Z,81.00
2023-02-08T05:33:56.864Z,81.00
2023-02-08T05:38:09.633Z,81.01
2023-02-08T05:42:11.987Z,80.47
2023-02-08T05:46:14.804Z,79.65
2023-02-08T05:50:17.854Z,79.80
2023-02-08T05:54:44.675Z,80.71
2023-02-08T05:58:47.237Z,81.56
2023-02-08T06:02:49.563Z,81.30
2023-02-08T06:06:51.782Z,81.29
2023-02-08T06:15:19.996Z,81.89
2023-02-08T06:19:22.120Z,82.63
2023-02-08T06:23:31.273Z,83.31
2023-02-08T06:27:33.458Z,83.91
2023-02-08T06:35:54.563Z,84.41
2023-02-08T06:39:57.307Z,84.00
2023-02-08T06:44:01.142Z,83.61
2023-02-08T06:48:04.466Z,83.24
2023-02-08T06:52:07.533Z,82.58
2023-02-08T06:56:10.739Z,82.11
2023-02-08T07:00:14.276Z,81.37
2023-02-08T07:04:20.652Z,80.44
2023-02-08T07:08:23.498Z,79.76
2023-02-08T07:12:26.318Z,79.23
2023-02-08T07:16:29.100Z,79.31
2023-02-08T07:20:32.401Z,79.47
2023-02-08T07:24:37.824Z,79.03
2023-02-08T07:28:42.083Z,78.24
2023-02-08T07:32:48.542Z,78.16
2023-02-08T07:36:51.774Z,78.79
2023-02-08T07:41:26.971Z,78.73
2023-02-08T07:45:33.580Z,78.70
2023-02-08T07:49:41.454Z,78.58
2023-02-08T07:53:43.694Z,77.71
2023-02-08T08:02:04.091Z,77.01
2023-02-08T08:06:06.518Z,76.66
2023-02-08T08:10:08.954Z,76.72
2023-02-08T08:14:11.110Z,76.24
2023-02-08T08:18:13.476Z,76.86
2023-02-08T08:22:15.450Z,75.96
2023-02-08T08:30:35.992Z,76.13
2023-02-08T08:34:38.987Z,75.14
2023-02-08T08:38:46.798Z,74.77
2023-02-08T08:42:49.789Z,73.76
2023-02-08T08:46:58.579Z,74.08
2023-02-08T08:51:03.256Z,74.93
2023-02-08T08:55:07.172Z,75.78
2023-02-08T08:59:16.148Z,74.84
2023-02-08T09:03:19.231Z,73.98
2023-02-08T09:07:21.975Z,74.75
2023-02-08T09:11:24.611Z,73.80
2023-02-08T09:15:26.832Z,73.13
2023-02-08T09:19:28.996Z,72.60
2023-02-08T09:23:31.108Z,72.85
2023-02-08T09:27:34.544Z,72.86
2023-02-08T09:31:37.443Z,72.28
2023-02-08T09:35:40.287Z,72.97
2023-02-08T09:39:43.137Z,72.88
2023-02-08T09:44:04.549Z,71.43
2023-02-08T09:48:23.647Z,70.40
2023-02-08T09:52:44.096Z,69.80
2023-02-08T09:56:48.903Z,69.56
2023-02-08T10:00:53.229Z,69.73
2023-02-08T10:05:00.956Z,69.22
2023-02-08T10:14:00.241Z,69.08
2023-02-08T10:23:21.935Z,68.96
2023-02-08T10:32:40.911Z,69.08
2023-02-08T10:41:42.002Z,69.46
2023-02-08T10:46:07.264Z,69.74
2023-02-08T10:50:24.561Z,70.27
2023-02-08T11:12:56.067Z,70.53
2023-02-08T11:22:18.286Z,70.92
2023-02-08T11:26:37.208Z,71.47
2023-02-08T11:42:37.198Z,72.38
2023-02-08T11:58:08.449Z,73.37
2023-02-08T12:54:46.481Z,74.63
2023-02-08T13:17:13.637Z,74.33
2023-02-08T13:21:27.432Z,74.83
2023-02-08T13:25:37.559Z,74.85
2023-02-08T13:29:44.604Z,74.48
2023-02-08T13:34:25.318Z,74.72
2023-02-08T13:38:34.133Z,74.42
2023-02-08T13:42:45.122Z,74.97
2023-02-08T13:46:52.773Z,75.74
2023-02-08T13:50:57.678Z,75.14
2023-02-08T13:55:34.161Z,75.30
2023-02-08T13:59:42.551Z,75.84
2023-02-08T14:04:11.938Z,75.69
2023-02-08T14:08:25.522Z,76.58
2023-02-08T14:12:56.190Z,76.88
2023-02-08T14:17:21.633Z,76.33
2023-02-08T14:21:32.563Z,75.66
2023-02-08T14:25:50.030Z,75.38
2023-02-08T14:30:17.275Z,74.97
2023-02-08T14:34:28.408Z,74.99
2023-02-08T14:38:53.966Z,74.74
2023-02-08T14:43:30.281Z,75.16
2023-02-08T14:47:36.401Z,75.21
2023-02-08T14:51:50.071Z,75.88
2023-02-08T14:56:05.422Z,76.42
2023-02-08T15:00:35.748Z,76.64
2023-02-08T15:04:45.095Z,76.92
2023-02-08T15:08:52.964Z,76.94
2023-02-08T15:13:04.377Z,76.00
2023-02-08T15:17:25.145Z,76.29
2023-02-08T15:21:32.591Z,76.57
2023-02-08T15:25:43.960Z,77.42
2023-02-08T15:29:48.986Z,77.37
2023-02-08T15:33:55.142Z,78.04
2023-02-08T15:38:01.875Z,78.56
2023-02-08T15:42:07.184Z,79.52
2023-02-08T15:46:27.713Z,79.65
2023-02-08T15:50:34.932Z,79.93
2023-02-08T15:54:40.015Z,80.00
2023-02-08T15:58:51.743Z,80.36
2023-02-08T16:03:03.267Z,80.88
2023-02-08T16:07:07.732Z,81.11
2023-02-08T16:11:31.127Z,81.49
2023-02-08T16:15:45.536Z,81.98
2023-02-08T16:20:04.892Z,82.26
2023-02-08T16:24:11.957Z,83.02
2023-02-08T16:28:34.040Z,83.74
2023-02-08T16:32:39.965Z,85.35
2023-02-08T16:36:50.073Z,86.56
2023-02-08T16:40:59.759Z,87.12
2023-02-08T16:45:09.767Z,87.26
2023-02-08T16:49:24.566Z,87.05
2023-02-08T16:53:49.426Z,87.88
2023-02-08T16:57:56.167Z,89.17
2023-02-08T17:01:59.556Z,89.84
2023-02-08T17:06:03.737Z,90.41
2023-02-08T17:10:14.721Z,91.03
2023-02-08T17:14:18.880Z,91.77
2023-02-08T17:18:24.595Z,92.56
2023-02-08T17:22:27.890Z,93.04
2023-02-08T17:26:42.914Z,93.51
2023-02-08T17:30:51.199Z,94.03
2023-02-08T17:34:55.358Z,94.84
2023-02-08T17:38:59.371Z,95.18
2023-02-08T17:43:04.729Z,95.31
2023-02-08T17:47:08.213Z,95.37
2023-02-08T17:51:16.208Z,95.03
2023-02-08T17:55:20.104Z,93.56
2023-02-08T17:59:45.430Z,92.58
2023-02-08T18:03:55.381Z,92.82
2023-02-08T18:08:00.555Z,93.15
2023-02-08T18:12:05.472Z,93.14
2023-02-08T18:16:24.362Z,92.83
2023-02-08T18:20:28.592Z,92.94
2023-02-08T18:24:32.817Z,92.55
2023-02-08T18:28:48.912Z,92.72
2023-02-08T18:32:53.065Z,92.44
2023-02-08T18:37:17.380Z,93.19
2023-02-08T18:46:34.005Z,94.16
2023-02-08T18:51:00.344Z,93.71
2023-02-08T18:55:09.617Z,94.17
2023-02-08T18:59:50.698Z,94.34
2023-02-08T19:08:45.991Z,94.05
2023-02-08T19:12:52.022Z,94.11
2023-02-08T19:16:57.932Z,93.84
2023-02-08T19:21:13.401Z,92.61
2023-02-08T19:25:18.424Z,91.97
2023-02-08T19:29:57.303Z,91.35
2023-02-08T19:34:05.563Z,90.05
2023-02-08T19:38:09.143Z,89.08
2023-02-08T19:42:53.914Z,88.51
2023-02-08T19:47:16.513Z,89.01
2023-02-08T19:52:32.504Z,90.39
2023-02-08T19:57:39.233Z,91.89
2023-02-08T20:01:50.431Z,92.44
2023-02-08T20:05:54.797Z,92.31
2023-02-08T20:09:58.198Z,92.02
2023-02-08T20:14:02.805Z,91.73
2023-02-08T20:18:06.720Z,91.71
2023-02-08T20:22:10.169Z,91.25
2023-02-08T20:26:22.089Z,91.19
2023-02-08T20:30:25.919Z,91.19
2023-02-08T20:34:29.216Z,91.81
2023-02-08T20:38:32.439Z,92.39
2023-02-08T20:42:35.983Z,92.32
2023-02-08T20:46:40.091Z,92.06
2023-02-08T21:22:11.366Z,90.00
2023-02-08T21:26:18.127Z,89.62
2023-02-08T21:30:21.359Z,89.86
2023-02-08T21:34:24.804Z,89.82
2023-02-08T21:38:28.169Z,89.91
2023-02-08T21:42:59.628Z,90.24
2023-02-08T21:47:02.889Z,90.68
2023-02-08T21:57:07.563Z,89.24
2023-02-08T22:01:10.598Z,88.70
2023-02-08T22:10:30.085Z,86.73
2023-02-08T22:14:36.541Z,86.51
2023-02-08T22:18:41.567Z,86.53
2023-02-08T22:22:59.988Z,86.45
2023-02-08T22:27:04.032Z,86.40
2023-02-08T22:31:07.352Z,86.37
2023-02-08T22:35:12.811Z,85.86
2023-02-08T22:39:15.991Z,85.18
2023-02-08T22:43:19.127Z,85.35
2023-02-08T22:47:22.899Z,84.91
2023-02-08T22:51:26.095Z,84.70
2023-02-08T22:55:29.248Z,84.50
2023-02-08T22:59:33.491Z,84.37
2023-02-08T23:03:36.522Z,84.12
2023-02-08T23:07:39.771Z,84.16
2023-02-08T23:11:42.953Z,83.95
2023-02-08T23:15:46.005Z,83.62
2023-02-08T23:20:16.826Z,83.34
2023-02-08T23:24:19.822Z,83.09
2023-02-08T23:28:23.079Z,82.78
2023-02-08T23:32:26.435Z,82.59
2023-02-08T23:36:29.544Z,82.39
2023-02-08T23:40:32.564Z,82.17
2023-02-08T23:44:41.025Z,82.05
2023-02-08T23:48:44.946Z,82.44
2023-02-08T23:52:47.984Z,82.56
2023-02-08T23:56:54.378Z,82.73
